Hlavní strana
METAR-TAF:

METAR-TAF

Letiště :

Sandefjord, Norsko

zeměpisná šířka: 59-12N, zeměpisná délka: 010-16E, výška: 8 m

Aktuální stav počasí

Zpráva byla vytvořena před 17 minutami, v 19:20 UTC
Západojihozápadní vítr 3 kt, proměnlivý mezi jihojihozápadním a západním
Teplota 3°C
Vlhkost vzduchu 70%
Tlak 1023 hPa
Viditelnost 10 km a více

METAR: ENTO 131920Z 24003KT 200V260 9999 BKN068/// OVC098/// 03/M02 Q1023 NOSIG

Čas: 21:37 (19:37 UTC)

Předpověď počasí

Předpověď platná od 13 v 18 UTC do 14 v 18 UTC
Severní vítr 5 kt
Viditelnost 10 km a více
Skoro jasno ve výšce 4500 ft
Pravděpodobnost 30% :
Dočasný
od 13 v 18 UTC do 13 v 19 UTC
Viditelnost: 4000 m
ve výšce 1200 ft
slabé sněhové přeháňky
Změna
od 14 v 12 UTC do 14 v 14 UTC
Jihozápadní vítr 10 kt

TAF: ENTO 1318/1418 35005KT 9999 FEW045 PROB30 TEMPO 1318/1319 4000 -SHSN VV012 BECMG 1412/1414 22010KT

Stav a předpovědi počasí z více než 4 000 letišť (zprávy METAR a TAF).

Červené a žluté tečky na mapě představují dostupné meteorologické stanice.

Když kurzor umístíte na tečku, zobrazí se název stanice.

Pak kliknutím zobrazíte stav a předpověď počasí.

Chcete-li změnit mapu, kliknutím na zelené tlačítko se znaménkem +mapu přiblížíte, kliknutím na zelené tlačítko se znaménkem – mapu oddálíte a kliknutím na zelené šipky přejdete na sousední mapy.


METAR-TAF: